sensor_id;sensor_type;location;lat;lon;timestamp;temperature;humidity
38020;DHT22;23829;51.350;17.286;2023-03-01T00:01:08;16.10;27.10
38020;DHT22;23829;51.350;17.286;2023-03-01T00:03:35;15.90;27.30
38020;DHT22;23829;51.350;17.286;2023-03-01T00:06:03;15.80;27.40
38020;DHT22;23829;51.350;17.286;2023-03-01T00:08:30;15.80;27.50
38020;DHT22;23829;51.350;17.286;2023-03-01T00:11:25;15.80;27.40
38020;DHT22;23829;51.350;17.286;2023-03-01T00:13:53;15.80;27.20
38020;DHT22;23829;51.350;17.286;2023-03-01T00:16:23;15.80;27.40
38020;DHT22;23829;51.350;17.286;2023-03-01T00:18:50;15.80;27.50
38020;DHT22;23829;51.350;17.286;2023-03-01T00:21:17;15.90;27.20
38020;DHT22;23829;51.350;17.286;2023-03-01T00:23:45;15.90;27.20
38020;DHT22;23829;51.350;17.286;2023-03-01T00:26:13;15.90;27.30
38020;DHT22;23829;51.350;17.286;2023-03-01T00:28:40;15.80;27.40
38020;DHT22;23829;51.350;17.286;2023-03-01T00:31:10;15.70;27.60
38020;DHT22;23829;51.350;17.286;2023-03-01T00:33:39;15.60;27.70
38020;DHT22;23829;51.350;17.286;2023-03-01T00:36:06;15.90;27.30
38020;DHT22;23829;51.350;17.286;2023-03-01T00:38:40;15.90;27.20
38020;DHT22;23829;51.350;17.286;2023-03-01T00:41:11;16.10;27.30
38020;DHT22;23829;51.350;17.286;2023-03-01T00:43:38;15.90;27.40
38020;DHT22;23829;51.350;17.286;2023-03-01T00:46:08;15.80;27.60
38020;DHT22;23829;51.350;17.286;2023-03-01T00:48:35;15.80;27.50
38020;DHT22;23829;51.350;17.286;2023-03-01T00:51:07;15.80;27.40
38020;DHT22;23829;51.350;17.286;2023-03-01T00:53:34;15.80;27.40
38020;DHT22;23829;51.350;17.286;2023-03-01T00:56:02;15.80;27.20
38020;DHT22;23829;51.350;17.286;2023-03-01T00:58:29;15.90;27.20
38020;DHT22;23829;51.350;17.286;2023-03-01T01:00:56;15.80;26.90
38020;DHT22;23829;51.350;17.286;2023-03-01T01:03:23;16.00;26.80
38020;DHT22;23829;51.350;17.286;2023-03-01T01:05:52;15.90;27.00
38020;DHT22;23829;51.350;17.286;2023-03-01T01:08:19;16.00;26.70
38020;DHT22;23829;51.350;17.286;2023-03-01T01:10:47;16.00;26.70
38020;DHT22;23829;51.350;17.286;2023-03-01T01:13:13;15.90;26.70
38020;DHT22;23829;51.350;17.286;2023-03-01T01:15:40;15.70;26.80
38020;DHT22;23829;51.350;17.286;2023-03-01T01:18:07;15.60;27.00
38020;DHT22;23829;51.350;17.286;2023-03-01T01:20:35;15.50;27.40
38020;DHT22;23829;51.350;17.286;2023-03-01T01:23:02;15.40;27.40
38020;DHT22;23829;51.350;17.286;2023-03-01T01:25:28;15.50;27.40
38020;DHT22;23829;51.350;17.286;2023-03-01T01:27:54;15.40;27.60
38020;DHT22;23829;51.350;17.286;2023-03-01T01:30:21;15.40;27.60
38020;DHT22;23829;51.350;17.286;2023-03-01T01:32:47;15.60;27.40
38020;DHT22;23829;51.350;17.286;2023-03-01T01:35:14;15.70;27.40
38020;DHT22;23829;51.350;17.286;2023-03-01T01:37:40;15.60;27.30
38020;DHT22;23829;51.350;17.286;2023-03-01T01:40:07;15.50;27.20
38020;DHT22;23829;51.350;17.286;2023-03-01T01:42:33;15.40;27.30
38020;DHT22;23829;51.350;17.286;2023-03-01T01:47:48;15.60;26.90
38020;DHT22;23829;51.350;17.286;2023-03-01T01:50:16;15.40;27.20
38020;DHT22;23829;51.350;17.286;2023-03-01T01:52:45;15.20;27.70
38020;DHT22;23829;51.350;17.286;2023-03-01T01:55:19;15.20;27.70
38020;DHT22;23829;51.350;17.286;2023-03-01T01:57:52;15.30;27.40
38020;DHT22;23829;51.350;17.286;2023-03-01T02:00:27;15.20;27.50
38020;DHT22;23829;51.350;17.286;2023-03-01T02:03:03;15.20;27.60
38020;DHT22;23829;51.350;17.286;2023-03-01T02:08:03;15.40;27.40
38020;DHT22;23829;51.350;17.286;2023-03-01T02:10:33;15.50;27.20
38020;DHT22;23829;51.350;17.286;2023-03-01T02:13:01;15.40;27.20
38020;DHT22;23829;51.350;17.286;2023-03-01T02:15:35;15.40;27.40
38020;DHT22;23829;51.350;17.286;2023-03-01T02:18:03;15.30;27.50
38020;DHT22;23829;51.350;17.286;2023-03-01T02:20:44;15.40;27.30
38020;DHT22;23829;51.350;17.286;2023-03-01T02:23:12;15.50;27.20
38020;DHT22;23829;51.350;17.286;2023-03-01T02:28:44;15.40;27.40
38020;DHT22;23829;51.350;17.286;2023-03-01T02:31:15;15.20;27.60
38020;DHT22;23829;51.350;17.286;2023-03-01T02:34:02;15.20;27.50
38020;DHT22;23829;51.350;17.286;2023-03-01T02:36:36;15.30;27.50
38020;DHT22;23829;51.350;17.286;2023-03-01T02:39:05;15.30;27.70
38020;DHT22;23829;51.350;17.286;2023-03-01T02:41:36;15.30;27.50
38020;DHT22;23829;51.350;17.286;2023-03-01T02:44:03;15.40;27.10
38020;DHT22;23829;51.350;17.286;2023-03-01T02:46:30;15.50;27.20
38020;DHT22;23829;51.350;17.286;2023-03-01T02:48:58;15.40;27.40
38020;DHT22;23829;51.350;17.286;2023-03-01T02:56:31;15.60;27.00
38020;DHT22;23829;51.350;17.286;2023-03-01T02:58:58;15.60;27.00
38020;DHT22;23829;51.350;17.286;2023-03-01T03:01:29;15.60;27.00
38020;DHT22;23829;51.350;17.286;2023-03-01T03:04:09;15.50;27.10
38020;DHT22;23829;51.350;17.286;2023-03-01T03:06:37;15.60;26.70
38020;DHT22;23829;51.350;17.286;2023-03-01T03:09:04;15.70;26.60
38020;DHT22;23829;51.350;17.286;2023-03-01T03:11:31;15.50;26.80
38020;DHT22;23829;51.350;17.286;2023-03-01T03:13:58;15.40;26.80
38020;DHT22;23829;51.350;17.286;2023-03-01T03:16:25;15.40;26.80
38020;DHT22;23829;51.350;17.286;2023-03-01T03:18:51;15.40;26.80
38020;DHT22;23829;51.350;17.286;2023-03-01T03:21:18;15.40;27.00
38020;DHT22;23829;51.350;17.286;2023-03-01T03:23:44;15.40;26.90
38020;DHT22;23829;51.350;17.286;2023-03-01T03:26:11;15.40;27.00
38020;DHT22;23829;51.350;17.286;2023-03-01T03:28:39;15.30;27.70
38020;DHT22;23829;51.350;17.286;2023-03-01T03:31:07;15.30;27.10
38020;DHT22;23829;51.350;17.286;2023-03-01T03:33:33;15.50;26.90
38020;DHT22;23829;51.350;17.286;2023-03-01T03:36:00;15.50;26.70
38020;DHT22;23829;51.350;17.286;2023-03-01T03:38:26;15.40;26.80
38020;DHT22;23829;51.350;17.286;2023-03-01T03:41:01;15.30;26.90
38020;DHT22;23829;51.350;17.286;2023-03-01T03:43:29;15.40;27.30
38020;DHT22;23829;51.350;17.286;2023-03-01T03:45:56;15.20;26.90
38020;DHT22;23829;51.350;17.286;2023-03-01T03:48:26;15.10;27.70
38020;DHT22;23829;51.350;17.286;2023-03-01T03:50:56;15.20;26.90
38020;DHT22;23829;51.350;17.286;2023-03-01T03:53:24;15.30;26.60
38020;DHT22;23829;51.350;17.286;2023-03-01T03:55:52;15.30;26.70
38020;DHT22;23829;51.350;17.286;2023-03-01T03:58:20;15.30;26.80
38020;DHT22;23829;51.350;17.286;2023-03-01T04:00:49;15.20;27.00
38020;DHT22;23829;51.350;17.286;2023-03-01T04:03:17;15.10;27.20
38020;DHT22;23829;51.350;17.286;2023-03-01T04:05:45;15.10;27.20
38020;DHT22;23829;51.350;17.286;2023-03-01T04:08:12;15.10;27.20
38020;DHT22;23829;51.350;17.286;2023-03-01T04:10:44;15.10;27.20
38020;DHT22;23829;51.350;17.286;2023-03-01T04:13:13;15.20;27.00
38020;DHT22;23829;51.350;17.286;2023-03-01T04:15:40;15.30;27.00
38020;DHT22;23829;51.350;17.286;2023-03-01T04:18:08;15.30;26.70
38020;DHT22;23829;51.350;17.286;2023-03-01T04:20:35;15.30;26.90
38020;DHT22;23829;51.350;17.286;2023-03-01T04:25:41;15.40;26.60
38020;DHT22;23829;51.350;17.286;2023-03-01T04:28:09;15.40;26.50
38020;DHT22;23829;51.350;17.286;2023-03-01T04:30:37;15.30;26.50
38020;DHT22;23829;51.350;17.286;2023-03-01T04:33:08;15.40;26.20
38020;DHT22;23829;51.350;17.286;2023-03-01T04:35:36;15.30;26.20
38020;DHT22;23829;51.350;17.286;2023-03-01T04:38:04;15.30;26.40
38020;DHT22;23829;51.350;17.286;2023-03-01T04:40:31;15.20;26.50
38020;DHT22;23829;51.350;17.286;2023-03-01T04:42:58;15.10;26.50
38020;DHT22;23829;51.350;17.286;2023-03-01T04:45:24;15.10;26.50
38020;DHT22;23829;51.350;17.286;2023-03-01T04:47:51;15.20;26.30
38020;DHT22;23829;51.350;17.286;2023-03-01T04:50:20;15.20;26.20
38020;DHT22;23829;51.350;17.286;2023-03-01T04:52:47;15.10;26.50
38020;DHT22;23829;51.350;17.286;2023-03-01T04:55:15;15.10;26.60
38020;DHT22;23829;51.350;17.286;2023-03-01T04:57:41;15.10;26.50
38020;DHT22;23829;51.350;17.286;2023-03-01T05:00:10;15.10;26.50
38020;DHT22;23829;51.350;17.286;2023-03-01T05:02:57;15.20;26.40
38020;DHT22;23829;51.350;17.286;2023-03-01T05:08:03;15.30;26.00
38020;DHT22;23829;51.350;17.286;2023-03-01T05:10:32;15.20;26.30
38020;DHT22;23829;51.350;17.286;2023-03-01T05:12:59;15.00;26.50
38020;DHT22;23829;51.350;17.286;2023-03-01T05:15:27;15.10;26.50
38020;DHT22;23829;51.350;17.286;2023-03-01T05:17:58;15.10;26.60
38020;DHT22;23829;51.350;17.286;2023-03-01T05:20:26;15.10;26.50
38020;DHT22;23829;51.350;17.286;2023-03-01T05:22:59;15.20;26.40
38020;DHT22;23829;51.350;17.286;2023-03-01T05:25:26;15.20;26.30
38020;DHT22;23829;51.350;17.286;2023-03-01T05:27:53;15.00;26.40
38020;DHT22;23829;51.350;17.286;2023-03-01T05:30:19;14.90;26.80
38020;DHT22;23829;51.350;17.286;2023-03-01T05:32:48;14.90;26.70
38020;DHT22;23829;51.350;17.286;2023-03-01T05:35:17;14.90;26.70
38020;DHT22;23829;51.350;17.286;2023-03-01T05:37:45;14.90;26.50
38020;DHT22;23829;51.350;17.286;2023-03-01T05:40:14;15.00;26.50
38020;DHT22;23829;51.350;17.286;2023-03-01T05:42:49;15.00;26.60
38020;DHT22;23829;51.350;17.286;2023-03-01T05:45:17;14.90;26.80
38020;DHT22;23829;51.350;17.286;2023-03-01T05:47:45;14.90;26.80
38020;DHT22;23829;51.350;17.286;2023-03-01T05:50:20;14.80;26.90
38020;DHT22;23829;51.350;17.286;2023-03-01T05:52:54;14.90;26.80
38020;DHT22;23829;51.350;17.286;2023-03-01T05:55:22;14.80;27.00
38020;DHT22;23829;51.350;17.286;2023-03-01T05:57:49;14.80;27.10
38020;DHT22;23829;51.350;17.286;2023-03-01T06:00:20;14.80;27.10
38020;DHT22;23829;51.350;17.286;2023-03-01T06:02:50;14.70;27.00
38020;DHT22;23829;51.350;17.286;2023-03-01T06:05:18;14.60;27.30
38020;DHT22;23829;51.350;17.286;2023-03-01T06:07:44;14.80;27.40
38020;DHT22;23829;51.350;17.286;2023-03-01T06:10:11;14.90;27.40
38020;DHT22;23829;51.350;17.286;2023-03-01T06:12:39;15.10;27.40
38020;DHT22;23829;51.350;17.286;2023-03-01T06:15:07;15.00;27.50
38020;DHT22;23829;51.350;17.286;2023-03-01T06:17:37;15.00;27.60
38020;DHT22;23829;51.350;17.286;2023-03-01T06:22:38;14.90;27.80
38020;DHT22;23829;51.350;17.286;2023-03-01T06:25:05;14.90;28.00
38020;DHT22;23829;51.350;17.286;2023-03-01T06:27:32;15.00;28.00
38020;DHT22;23829;51.350;17.286;2023-03-01T06:29:58;15.30;27.80
38020;DHT22;23829;51.350;17.286;2023-03-01T06:32:25;15.30;28.00
38020;DHT22;23829;51.350;17.286;2023-03-01T06:34:51;15.30;28.20
38020;DHT22;23829;51.350;17.286;2023-03-01T06:37:17;15.40;28.30
38020;DHT22;23829;51.350;17.286;2023-03-01T06:39:44;15.40;28.30
38020;DHT22;23829;51.350;17.286;2023-03-01T06:42:11;15.50;28.40
38020;DHT22;23829;51.350;17.286;2023-03-01T06:44:37;15.60;28.50
38020;DHT22;23829;51.350;17.286;2023-03-01T06:47:04;15.60;28.60
38020;DHT22;23829;51.350;17.286;2023-03-01T06:49:31;15.70;28.90
38020;DHT22;23829;51.350;17.286;2023-03-01T06:51:57;15.70;29.00
38020;DHT22;23829;51.350;17.286;2023-03-01T06:54:23;15.90;29.20
38020;DHT22;23829;51.350;17.286;2023-03-01T06:56:50;16.00;29.60
38020;DHT22;23829;51.350;17.286;2023-03-01T06:59:17;16.50;29.50
38020;DHT22;23829;51.350;17.286;2023-03-01T07:01:44;16.50;29.20
38020;DHT22;23829;51.350;17.286;2023-03-01T07:04:12;16.40;29.30
38020;DHT22;23829;51.350;17.286;2023-03-01T07:06:38;16.40;29.50
38020;DHT22;23829;51.350;17.286;2023-03-01T07:09:05;16.40;29.60
38020;DHT22;23829;51.350;17.286;2023-03-01T07:11:31;16.40;29.30
38020;DHT22;23829;51.350;17.286;2023-03-01T07:13:58;16.60;29.70
38020;DHT22;23829;51.350;17.286;2023-03-01T07:16:26;16.60;29.70
38020;DHT22;23829;51.350;17.286;2023-03-01T07:18:52;16.60;29.30
38020;DHT22;23829;51.350;17.286;2023-03-01T07:21:18;16.70;29.50
38020;DHT22;23829;51.350;17.286;2023-03-01T07:23:47;16.90;29.70
38020;DHT22;23829;51.350;17.286;2023-03-01T07:26:14;17.00;29.60
38020;DHT22;23829;51.350;17.286;2023-03-01T07:28:41;16.50;29.90
38020;DHT22;23829;51.350;17.286;2023-03-01T07:31:07;16.90;29.50
38020;DHT22;23829;51.350;17.286;2023-03-01T07:33:34;17.50;28.50
38020;DHT22;23829;51.350;17.286;2023-03-01T07:36:03;17.50;28.60
38020;DHT22;23829;51.350;17.286;2023-03-01T07:38:29;17.50;29.10
38020;DHT22;23829;51.350;17.286;2023-03-01T07:41:00;17.80;28.80
38020;DHT22;23829;51.350;17.286;2023-03-01T07:43:28;17.70;28.40
38020;DHT22;23829;51.350;17.286;2023-03-01T07:45:54;17.70;28.30
38020;DHT22;23829;51.350;17.286;2023-03-01T07:48:21;17.60;28.00
38020;DHT22;23829;51.350;17.286;2023-03-01T07:50:47;17.70;28.00
38020;DHT22;23829;51.350;17.286;2023-03-01T07:53:13;17.70;28.20
38020;DHT22;23829;51.350;17.286;2023-03-01T07:55:40;18.10;27.80
38020;DHT22;23829;51.350;17.286;2023-03-01T07:58:06;18.20;27.70
38020;DHT22;23829;51.350;17.286;2023-03-01T08:00:32;18.30;27.70
38020;DHT22;23829;51.350;17.286;2023-03-01T08:03:00;18.10;27.70
38020;DHT22;23829;51.350;17.286;2023-03-01T08:05:27;18.10;28.00
38020;DHT22;23829;51.350;17.286;2023-03-01T08:07:54;17.70;28.50
38020;DHT22;23829;51.350;17.286;2023-03-01T08:10:21;18.00;28.90
38020;DHT22;23829;51.350;17.286;2023-03-01T08:12:47;17.80;28.80
38020;DHT22;23829;51.350;17.286;2023-03-01T08:15:13;17.90;28.90
38020;DHT22;23829;51.350;17.286;2023-03-01T08:17:40;17.90;28.70
38020;DHT22;23829;51.350;17.286;2023-03-01T08:20:07;17.80;28.80
38020;DHT22;23829;51.350;17.286;2023-03-01T08:22:33;17.70;28.90
38020;DHT22;23829;51.350;17.286;2023-03-01T08:25:00;17.30;29.40
38020;DHT22;23829;51.350;17.286;2023-03-01T08:27:26;17.40;29.50
38020;DHT22;23829;51.350;17.286;2023-03-01T08:29:53;17.50;29.30
38020;DHT22;23829;51.350;17.286;2023-03-01T08:32:19;17.40;29.30
38020;DHT22;23829;51.350;17.286;2023-03-01T08:34:48;17.50;29.20
38020;DHT22;23829;51.350;17.286;2023-03-01T08:37:15;17.30;29.20
38020;DHT22;23829;51.350;17.286;2023-03-01T08:39:41;17.40;29.00
38020;DHT22;23829;51.350;17.286;2023-03-01T08:42:08;17.80;28.90
38020;DHT22;23829;51.350;17.286;2023-03-01T08:44:34;18.00;28.50
38020;DHT22;23829;51.350;17.286;2023-03-01T08:47:01;18.10;28.30
38020;DHT22;23829;51.350;17.286;2023-03-01T08:49:28;18.10;28.50
38020;DHT22;23829;51.350;17.286;2023-03-01T08:51:54;17.90;28.50
38020;DHT22;23829;51.350;17.286;2023-03-01T08:54:21;18.10;28.30
38020;DHT22;23829;51.350;17.286;2023-03-01T08:56:49;18.10;28.70
38020;DHT22;23829;51.350;17.286;2023-03-01T08:59:18;18.30;28.00
38020;DHT22;23829;51.350;17.286;2023-03-01T09:01:45;18.20;27.80
38020;DHT22;23829;51.350;17.286;2023-03-01T09:04:12;17.80;28.20
38020;DHT22;23829;51.350;17.286;2023-03-01T09:06:39;17.50;28.50
38020;DHT22;23829;51.350;17.286;2023-03-01T09:09:06;17.80;28.60
38020;DHT22;23829;51.350;17.286;2023-03-01T09:11:34;17.80;28.70
38020;DHT22;23829;51.350;17.286;2023-03-01T09:14:00;17.90;28.40
38020;DHT22;23829;51.350;17.286;2023-03-01T09:16:27;18.00;28.10
38020;DHT22;23829;51.350;17.286;2023-03-01T09:18:55;18.70;27.80
38020;DHT22;23829;51.350;17.286;2023-03-01T09:21:23;18.50;27.60
38020;DHT22;23829;51.350;17.286;2023-03-01T09:23:50;18.50;27.60
38020;DHT22;23829;51.350;17.286;2023-03-01T09:26:18;18.30;27.80
38020;DHT22;23829;51.350;17.286;2023-03-01T09:28:46;19.30;26.50
38020;DHT22;23829;51.350;17.286;2023-03-01T09:31:13;18.50;27.10
38020;DHT22;23829;51.350;17.286;2023-03-01T09:33:41;18.10;27.50
38020;DHT22;23829;51.350;17.286;2023-03-01T09:36:12;17.60;27.90
38020;DHT22;23829;51.350;17.286;2023-03-01T09:38:39;18.50;27.50
38020;DHT22;23829;51.350;17.286;2023-03-01T09:46:23;18.20;28.00
38020;DHT22;23829;51.350;17.286;2023-03-01T09:49:04;18.70;27.10
38020;DHT22;23829;51.350;17.286;2023-03-01T09:51:34;18.20;27.50
38020;DHT22;23829;51.350;17.286;2023-03-01T09:54:02;18.40;27.50
38020;DHT22;23829;51.350;17.286;2023-03-01T10:01:59;18.10;27.50
38020;DHT22;23829;51.350;17.286;2023-03-01T10:04:47;18.10;27.40
38020;DHT22;23829;51.350;17.286;2023-03-01T10:07:49;18.30;27.30
38020;DHT22;23829;51.350;17.286;2023-03-01T10:10:39;18.70;26.80
38020;DHT22;23829;51.350;17.286;2023-03-01T10:16:10;19.50;25.90
38020;DHT22;23829;51.350;17.286;2023-03-01T10:18:40;18.90;26.30
38020;DHT22;23829;51.350;17.286;2023-03-01T10:21:13;19.50;25.30
38020;DHT22;23829;51.350;17.286;2023-03-01T10:23:41;19.40;25.30
38020;DHT22;23829;51.350;17.286;2023-03-01T10:31:26;19.00;25.50
38020;DHT22;23829;51.350;17.286;2023-03-01T10:33:55;19.40;24.70
38020;DHT22;23829;51.350;17.286;2023-03-01T10:36:23;19.50;24.80
38020;DHT22;23829;51.350;17.286;2023-03-01T10:38:53;19.70;24.60
38020;DHT22;23829;51.350;17.286;2023-03-01T10:41:21;19.50;24.80
38020;DHT22;23829;51.350;17.286;2023-03-01T10:43:56;19.70;24.50
38020;DHT22;23829;51.350;17.286;2023-03-01T10:46:35;19.50;24.80
38020;DHT22;23829;51.350;17.286;2023-03-01T10:49:21;20.00;24.60
38020;DHT22;23829;51.350;17.286;2023-03-01T10:51:49;20.10;24.80
38020;DHT22;23829;51.350;17.286;2023-03-01T10:54:34;20.10;24.60
38020;DHT22;23829;51.350;17.286;2023-03-01T10:57:03;20.40;24.80
38020;DHT22;23829;51.350;17.286;2023-03-01T10:59:38;19.90;24.90
38020;DHT22;23829;51.350;17.286;2023-03-01T11:02:29;20.10;24.80
38020;DHT22;23829;51.350;17.286;2023-03-01T11:07:53;20.50;24.80
38020;DHT22;23829;51.350;17.286;2023-03-01T11:10:29;20.50;24.80
38020;DHT22;23829;51.350;17.286;2023-03-01T11:13:15;20.60;24.80
38020;DHT22;23829;51.350;17.286;2023-03-01T11:15:43;20.60;25.00
38020;DHT22;23829;51.350;17.286;2023-03-01T11:18:22;20.70;25.20
38020;DHT22;23829;51.350;17.286;2023-03-01T11:20:53;20.90;24.90
38020;DHT22;23829;51.350;17.286;2023-03-01T11:23:21;21.00;24.80
38020;DHT22;23829;51.350;17.286;2023-03-01T11:25:55;20.30;25.20
38020;DHT22;23829;51.350;17.286;2023-03-01T11:28:23;20.50;25.00
38020;DHT22;23829;51.350;17.286;2023-03-01T11:31:00;19.70;25.10
38020;DHT22;23829;51.350;17.286;2023-03-01T11:33:35;20.00;24.60
38020;DHT22;23829;51.350;17.286;2023-03-01T11:36:10;20.20;24.70
38020;DHT22;23829;51.350;17.286;2023-03-01T11:38:39;20.90;23.90
38020;DHT22;23829;51.350;17.286;2023-03-01T11:41:10;20.80;23.40
38020;DHT22;23829;51.350;17.286;2023-03-01T11:43:55;20.10;22.90
38020;DHT22;23829;51.350;17.286;2023-03-01T11:46:43;20.10;22.20
38020;DHT22;23829;51.350;17.286;2023-03-01T11:58:45;20.10;23.00
38020;DHT22;23829;51.350;17.286;2023-03-01T12:09:18;21.30;21.30
38020;DHT22;23829;51.350;17.286;2023-03-01T12:12:06;21.20;21.50
38020;DHT22;23829;51.350;17.286;2023-03-01T12:20:20;20.20;22.60
38020;DHT22;23829;51.350;17.286;2023-03-01T12:50:57;22.00;20.80
38020;DHT22;23829;51.350;17.286;2023-03-01T12:53:29;21.60;21.30
38020;DHT22;23829;51.350;17.286;2023-03-01T12:56:11;21.30;21.90
38020;DHT22;23829;51.350;17.286;2023-03-01T12:59:13;21.10;22.10
38020;DHT22;23829;51.350;17.286;2023-03-01T13:02:05;21.10;22.40
38020;DHT22;23829;51.350;17.286;2023-03-01T13:05:05;21.40;21.60
38020;DHT22;23829;51.350;17.286;2023-03-01T13:07:54;21.60;21.20
38020;DHT22;23829;51.350;17.286;2023-03-01T13:10:33;20.90;21.70
38020;DHT22;23829;51.350;17.286;2023-03-01T13:13:12;20.60;22.10
38020;DHT22;23829;51.350;17.286;2023-03-01T13:15:39;21.20;21.50
38020;DHT22;23829;51.350;17.286;2023-03-01T13:18:28;20.80;21.80
38020;DHT22;23829;51.350;17.286;2023-03-01T13:20:56;21.20;21.40
38020;DHT22;23829;51.350;17.286;2023-03-01T13:23:41;21.40;21.30
38020;DHT22;23829;51.350;17.286;2023-03-01T13:26:16;21.40;21.60
38020;DHT22;23829;51.350;17.286;2023-03-01T13:28:52;21.50;21.70
38020;DHT22;23829;51.350;17.286;2023-03-01T13:33:56;21.40;21.90
38020;DHT22;23829;51.350;17.286;2023-03-01T13:41:49;21.60;21.70
38020;DHT22;23829;51.350;17.286;2023-03-01T13:44:33;21.80;21.40
38020;DHT22;23829;51.350;17.286;2023-03-01T13:50:00;21.30;22.30
38020;DHT22;23829;51.350;17.286;2023-03-01T13:57:56;22.00;21.70
38020;DHT22;23829;51.350;17.286;2023-03-01T14:00:36;22.20;21.40
38020;DHT22;23829;51.350;17.286;2023-03-01T14:03:23;22.20;21.40
38020;DHT22;23829;51.350;17.286;2023-03-01T14:06:08;22.40;21.10
38020;DHT22;23829;51.350;17.286;2023-03-01T14:08:37;22.10;21.10
38020;DHT22;23829;51.350;17.286;2023-03-01T14:19:26;22.30;20.10
38020;DHT22;23829;51.350;17.286;2023-03-01T14:22:20;22.30;21.10
38020;DHT22;23829;51.350;17.286;2023-03-01T14:25:02;22.10;20.60
38020;DHT22;23829;51.350;17.286;2023-03-01T14:27:37;22.20;20.20
38020;DHT22;23829;51.350;17.286;2023-03-01T14:30:15;22.10;20.40
38020;DHT22;23829;51.350;17.286;2023-03-01T14:32:52;22.30;19.60
38020;DHT22;23829;51.350;17.286;2023-03-01T14:35:23;22.50;19.70
38020;DHT22;23829;51.350;17.286;2023-03-01T14:37:49;22.00;20.20
38020;DHT22;23829;51.350;17.286;2023-03-01T14:40:29;21.90;20.50
38020;DHT22;23829;51.350;17.286;2023-03-01T14:42:58;21.70;20.70
38020;DHT22;23829;51.350;17.286;2023-03-01T14:45:27;21.80;20.70
38020;DHT22;23829;51.350;17.286;2023-03-01T14:47:55;21.90;20.60
38020;DHT22;23829;51.350;17.286;2023-03-01T14:50:31;22.00;20.60
38020;DHT22;23829;51.350;17.286;2023-03-01T14:53:00;21.90;20.70
38020;DHT22;23829;51.350;17.286;2023-03-01T14:55:35;21.90;20.90
38020;DHT22;23829;51.350;17.286;2023-03-01T14:58:11;21.90;20.80
38020;DHT22;23829;51.350;17.286;2023-03-01T15:00:39;22.00;20.60
38020;DHT22;23829;51.350;17.286;2023-03-01T15:03:17;22.00;20.40
38020;DHT22;23829;51.350;17.286;2023-03-01T15:05:46;21.80;20.30
38020;DHT22;23829;51.350;17.286;2023-03-01T15:08:19;21.90;20.40
38020;DHT22;23829;51.350;17.286;2023-03-01T15:11:05;22.00;20.50
38020;DHT22;23829;51.350;17.286;2023-03-01T15:13:34;21.90;20.40
38020;DHT22;23829;51.350;17.286;2023-03-01T15:16:06;22.10;20.40
38020;DHT22;23829;51.350;17.286;2023-03-01T15:18:34;22.10;20.50
38020;DHT22;23829;51.350;17.286;2023-03-01T15:21:08;22.20;20.20
38020;DHT22;23829;51.350;17.286;2023-03-01T15:23:36;22.30;20.50
38020;DHT22;23829;51.350;17.286;2023-03-01T15:26:05;22.40;20.40
38020;DHT22;23829;51.350;17.286;2023-03-01T15:28:42;22.50;20.50
38020;DHT22;23829;51.350;17.286;2023-03-01T15:31:22;22.40;20.80
38020;DHT22;23829;51.350;17.286;2023-03-01T15:33:49;22.30;21.00
38020;DHT22;23829;51.350;17.286;2023-03-01T15:36:46;22.10;21.00
38020;DHT22;23829;51.350;17.286;2023-03-01T15:39:32;22.10;21.10
38020;DHT22;23829;51.350;17.286;2023-03-01T15:48:14;22.00;21.10
38020;DHT22;23829;51.350;17.286;2023-03-01T15:50:41;21.80;21.30
38020;DHT22;23829;51.350;17.286;2023-03-01T15:53:13;21.80;21.30
38020;DHT22;23829;51.350;17.286;2023-03-01T15:55:41;22.00;21.10
38020;DHT22;23829;51.350;17.286;2023-03-01T15:58:22;21.80;21.30
38020;DHT22;23829;51.350;17.286;2023-03-01T16:00:50;21.80;21.30
38020;DHT22;23829;51.350;17.286;2023-03-01T16:03:22;21.90;21.70
38020;DHT22;23829;51.350;17.286;2023-03-01T16:05:49;21.90;21.80
38020;DHT22;23829;51.350;17.286;2023-03-01T16:08:17;21.90;22.30
38020;DHT22;23829;51.350;17.286;2023-03-01T16:10:43;21.90;22.30
38020;DHT22;23829;51.350;17.286;2023-03-01T16:13:12;21.80;22.60
38020;DHT22;23829;51.350;17.286;2023-03-01T16:15:38;21.80;22.60
38020;DHT22;23829;51.350;17.286;2023-03-01T16:18:06;21.60;23.20
38020;DHT22;23829;51.350;17.286;2023-03-01T16:20:34;21.50;23.50
38020;DHT22;23829;51.350;17.286;2023-03-01T16:23:02;21.40;23.60
38020;DHT22;23829;51.350;17.286;2023-03-01T16:25:30;21.30;23.00
38020;DHT22;23829;51.350;17.286;2023-03-01T16:27:58;21.30;22.80
38020;DHT22;23829;51.350;17.286;2023-03-01T16:30:26;21.20;23.00
38020;DHT22;23829;51.350;17.286;2023-03-01T16:32:53;21.10;23.20
38020;DHT22;23829;51.350;17.286;2023-03-01T16:35:21;21.00;23.30
38020;DHT22;23829;51.350;17.286;2023-03-01T16:37:48;20.90;23.80
38020;DHT22;23829;51.350;17.286;2023-03-01T16:40:20;20.80;23.60
38020;DHT22;23829;51.350;17.286;2023-03-01T16:42:49;20.80;24.10
38020;DHT22;23829;51.350;17.286;2023-03-01T16:45:16;20.80;23.60
38020;DHT22;23829;51.350;17.286;2023-03-01T16:47:42;20.80;23.60
38020;DHT22;23829;51.350;17.286;2023-03-01T16:50:09;20.90;23.30
38020;DHT22;23829;51.350;17.286;2023-03-01T16:52:37;20.80;23.50
38020;DHT22;23829;51.350;17.286;2023-03-01T16:55:05;20.50;23.30
38020;DHT22;23829;51.350;17.286;2023-03-01T16:57:37;20.30;23.70
38020;DHT22;23829;51.350;17.286;2023-03-01T17:00:08;20.10;23.80
38020;DHT22;23829;51.350;17.286;2023-03-01T17:02:40;20.00;24.20
38020;DHT22;23829;51.350;17.286;2023-03-01T17:05:07;20.20;24.20
38020;DHT22;23829;51.350;17.286;2023-03-01T17:07:35;20.10;24.30
38020;DHT22;23829;51.350;17.286;2023-03-01T17:10:06;19.90;24.20
38020;DHT22;23829;51.350;17.286;2023-03-01T17:12:34;19.80;24.30
38020;DHT22;23829;51.350;17.286;2023-03-01T17:15:01;19.80;24.50
38020;DHT22;23829;51.350;17.286;2023-03-01T17:17:28;19.90;24.50
38020;DHT22;23829;51.350;17.286;2023-03-01T17:19:54;20.00;24.60
38020;DHT22;23829;51.350;17.286;2023-03-01T17:22:21;19.90;24.50
38020;DHT22;23829;51.350;17.286;2023-03-01T17:24:47;19.70;24.90
38020;DHT22;23829;51.350;17.286;2023-03-01T17:27:13;19.60;25.00
38020;DHT22;23829;51.350;17.286;2023-03-01T17:29:41;19.70;25.10
38020;DHT22;23829;51.350;17.286;2023-03-01T17:32:08;19.60;25.20
38020;DHT22;23829;51.350;17.286;2023-03-01T17:34:34;19.30;25.30
38020;DHT22;23829;51.350;17.286;2023-03-01T17:37:02;19.20;25.30
38020;DHT22;23829;51.350;17.286;2023-03-01T17:39:29;19.10;25.40